Notice: Undefined index: language in /storage/ssd5/933/2892933/public_html/vam/index.php on line 25
JetGo Aerolínea Virtual

www.000webhost.com
 METAR AND TAF INFORMATION
METAR FOR SKMR
ADDS - METARS form results

(1930 UTC 21 July 2019)
Data provider http://aviationweather.gov/metar/data/
 
METAR text: SKMR 211900Z 00000KT 9999 FEW020 SCT100 34/26 A2972
Conditions at: SKMR (MONTERIA/LOS GAR, CO) observed 1900 UTC 21 July 2019
Temperature: 34.0°C (93°F)
Dewpoint: 26.0°C (79°F) [RH = 63%]
Pressure (altimeter): 29.72 inches Hg (1006.5 mb)
Winds: calm
Visibility: 6 or more miles (10+ km)
Ceiling: at least 12,000 feet AGL
Clouds: few clouds at 2000 feet AGL
scattered clouds at 10000 feet AGL
Weather: no significant weather observed at this time

 AIRPORT MAP

 RUNWAY INFORMATION
Runway 14 Runway length 6285 ft Runway width 115 ft
Runway elevation 20 ft Runway displaced threshold 0 ft Runway heading 138
Runway 32 Runway length 6285 ft Runway width 115 ft
Runway elevation 18 ft Runway displaced threshold 0 ft Runway heading 318

 AIRPORT FREQUENCIES
Type INFO Name MONTERIA F Frequency 127.5 MHZ
Type RDO Name MONTERIA R Frequency 348.8 MHZ
Type TWR Name TWR Frequency 118.1 MHZ

 AIRPORT NEAR NAVIGATION AIDS
Type VOR-DME Name Monteria Frequency 114400 KHZ



Powered by VAM for JetGo Virtual Airlines